Time;durP1;ratioP1;P1;durP2;ratioP2;P2;SDS_P1;SDS_P2;PMS_P1;PMS_P2;Temp;Humidity;BMP_temperature;BMP_pressure;BME280_temperature;BME280_humidity;BME280_pressure;Samples;Min_cycle;Max_cycle;Signal;HPM_P1;HPM_P2
2023/04/13 00:01:57;;;;;;;8.60;5.82;;;;;;;;;;5141023;27;20022;-71
2023/04/13 00:04:43;;;;;;;8.82;5.75;;;;;;;;;;5141233;27;20022;-71
2023/04/13 00:07:28;;;;;;;7.70;5.60;;;;;;;;;;5139244;27;20486;-70
2023/04/13 00:10:24;;;;;;;6.95;5.22;;;;;;;;;;5125198;27;20051;-71
2023/04/13 00:13:09;;;;;;;5.97;5.00;;;;;;;;;;5139720;27;20027;-71
2023/04/13 00:15:55;;;;;;;6.10;4.82;;;;;;;;;;5144877;27;20117;-71
2023/04/13 00:18:41;;;;;;;6.45;4.82;;;;;;;;;;5149833;27;20050;-72
2023/04/13 00:21:26;;;;;;;7.43;4.72;;;;;;;;;;5148479;27;20027;-73
2023/04/13 00:24:12;;;;;;;6.78;5.15;;;;;;;;;;5152044;27;20027;-72
2023/04/13 00:26:58;;;;;;;6.47;5.10;;;;;;;;;;5150574;27;20023;-73
2023/04/13 00:29:43;;;;;;;7.65;5.35;;;;;;;;;;5149763;27;20034;-72
2023/04/13 00:32:29;;;;;;;6.82;4.85;;;;;;;;;;5144660;27;20507;-72
2023/04/13 00:35:17;;;;;;;7.85;5.30;;;;;;;;;;5142540;27;20031;-71
2023/04/13 00:38:03;;;;;;;8.88;5.78;;;;;;;;;;5146631;27;20034;-70
2023/04/13 00:40:48;;;;;;;8.55;5.70;;;;;;;;;;5131138;27;20007;-71
2023/04/13 00:43:34;;;;;;;7.88;6.10;;;;;;;;;;5142968;27;20011;-71
2023/04/13 00:46:21;;;;;;;8.13;5.75;;;;;;;;;;5140914;27;20019;-71
2023/04/13 00:49:07;;;;;;;8.27;5.88;;;;;;;;;;5140445;27;20345;-72
2023/04/13 00:51:52;;;;;;;8.15;6.13;;;;;;;;;;5138256;27;20086;-71
2023/04/13 00:54:38;;;;;;;7.65;5.95;;;;;;;;;;5124988;27;20027;-71
2023/04/13 00:57:24;;;;;;;8.52;5.93;;;;;;;;;;5138872;27;20035;-72
2023/04/13 01:00:10;;;;;;;8.00;5.80;;;;;;;;;;5137848;27;20011;-71
2023/04/13 01:02:55;;;;;;;7.40;5.20;;;;;;;;;;5139377;27;20030;-72
2023/04/13 01:06:00;;;;;;;6.13;5.00;;;;;;;;;;5124517;27;20047;-71
2023/04/13 01:09:07;;;;;;;6.72;4.85;;;;;;;;;;5124792;27;20041;-71
2023/04/13 01:12:09;;;;;;;7.40;4.78;;;;;;;;;;5137846;27;20104;-72
2023/04/13 01:14:59;;;;;;;5.45;4.35;;;;;;;;;;5125148;27;20114;-73
2023/04/13 01:17:51;;;;;;;7.45;4.88;;;;;;;;;;5136937;27;20024;-71
2023/04/13 01:20:37;;;;;;;6.85;5.35;;;;;;;;;;5125896;27;20015;-71
2023/04/13 01:23:33;;;;;;;9.80;5.55;;;;;;;;;;5123935;27;20069;-71
2023/04/13 01:26:21;;;;;;;6.97;5.18;;;;;;;;;;5123391;27;20023;-70
2023/04/13 01:29:07;;;;;;;7.88;5.60;;;;;;;;;;5122432;27;20070;-71
2023/04/13 01:31:53;;;;;;;8.75;4.88;;;;;;;;;;5135905;27;20050;-71
2023/04/13 01:34:38;;;;;;;6.65;5.25;;;;;;;;;;5137165;27;20023;-71
2023/04/13 01:37:25;;;;;;;6.13;4.95;;;;;;;;;;5136489;27;20454;-72
2023/04/13 01:40:12;;;;;;;7.07;5.18;;;;;;;;;;5135893;27;20034;-71
2023/04/13 01:42:57;;;;;;;7.57;5.25;;;;;;;;;;5135823;27;20431;-71
2023/04/13 01:45:44;;;;;;;6.97;5.07;;;;;;;;;;5135093;27;20023;-71
2023/04/13 01:48:36;;;;;;;7.32;5.10;;;;;;;;;;5135630;27;20019;-73
2023/04/13 01:51:23;;;;;;;6.35;4.80;;;;;;;;;;5136572;27;20023;-71
2023/04/13 01:54:12;;;;;;;11.15;5.28;;;;;;;;;;5135976;27;20019;-72
2023/04/13 01:56:58;;;;;;;5.93;4.60;;;;;;;;;;5122065;27;20110;-71
2023/04/13 01:59:44;;;;;;;4.97;4.43;;;;;;;;;;5135847;27;20498;-71
2023/04/13 02:02:30;;;;;;;8.02;4.70;;;;;;;;;;5135164;27;20015;-72
2023/04/13 02:05:15;;;;;;;6.30;4.57;;;;;;;;;;5135195;27;20023;-71
2023/04/13 02:08:04;;;;;;;6.60;4.78;;;;;;;;;;5134685;27;20042;-71
2023/04/13 02:10:50;;;;;;;6.28;4.68;;;;;;;;;;5121436;27;20019;-71
2023/04/13 02:13:35;;;;;;;6.03;4.57;;;;;;;;;;5120986;27;20019;-71
2023/04/13 02:16:21;;;;;;;8.40;4.57;;;;;;;;;;5134554;27;20027;-72
2023/04/13 02:19:06;;;;;;;8.55;4.30;;;;;;;;;;5135362;27;20023;-72
2023/04/13 02:21:52;;;;;;;6.05;4.55;;;;;;;;;;5135926;27;20030;-71
2023/04/13 02:24:38;;;;;;;5.22;4.28;;;;;;;;;;5121648;27;20075;-71
2023/04/13 02:27:23;;;;;;;5.90;4.22;;;;;;;;;;5120490;27;20114;-71
2023/04/13 02:30:09;;;;;;;7.32;4.60;;;;;;;;;;5134984;27;20034;-73
2023/04/13 02:32:55;;;;;;;8.23;4.38;;;;;;;;;;5121817;27;20015;-71
2023/04/13 02:35:41;;;;;;;5.45;4.05;;;;;;;;;;5134342;27;20019;-71
2023/04/13 02:38:27;;;;;;;7.13;4.32;;;;;;;;;;5134302;27;20011;-72
2023/04/13 02:41:12;;;;;;;6.50;4.40;;;;;;;;;;5135135;27;20436;-71
2023/04/13 02:43:58;;;;;;;8.48;4.13;;;;;;;;;;5135595;27;20034;-73
2023/04/13 02:46:44;;;;;;;7.50;4.45;;;;;;;;;;5135028;27;20454;-72
2023/04/13 02:49:29;;;;;;;5.88;3.92;;;;;;;;;;5134585;27;20392;-70
2023/04/13 02:52:15;;;;;;;5.75;3.80;;;;;;;;;;5134492;28;20027;-72
2023/04/13 02:55:01;;;;;;;5.53;4.22;;;;;;;;;;5134705;28;20434;-72
2023/04/13 02:57:46;;;;;;;5.88;4.00;;;;;;;;;;5136393;27;20027;-72
2023/04/13 03:00:32;;;;;;;5.95;4.32;;;;;;;;;;5139374;27;20011;-72
2023/04/13 03:03:19;;;;;;;7.82;4.70;;;;;;;;;;5140154;27;20023;-72
2023/04/13 03:06:04;;;;;;;7.15;4.70;;;;;;;;;;5138545;27;20106;-72
2023/04/13 03:08:50;;;;;;;7.68;4.57;;;;;;;;;;5138765;27;20055;-72
2023/04/13 03:11:36;;;;;;;8.50;4.88;;;;;;;;;;5138898;27;20028;-70
2023/04/13 03:14:21;;;;;;;8.68;5.07;;;;;;;;;;5125314;27;20023;-71
2023/04/13 03:17:07;;;;;;;10.57;6.25;;;;;;;;;;5124077;27;20020;-70
2023/04/13 03:19:52;;;;;;;7.50;5.53;;;;;;;;;;5138176;27;20015;-71
2023/04/13 03:22:38;;;;;;;12.65;6.25;;;;;;;;;;5125545;27;20439;-72
2023/04/13 03:25:24;;;;;;;9.98;5.95;;;;;;;;;;5125094;27;20470;-70
2023/04/13 03:28:10;;;;;;;9.57;5.93;;;;;;;;;;5138029;27;20415;-71
2023/04/13 03:30:56;;;;;;;8.70;5.35;;;;;;;;;;5139187;27;20027;-72
2023/04/13 03:33:41;;;;;;;6.43;5.25;;;;;;;;;;5137772;27;20033;-72
2023/04/13 03:36:27;;;;;;;9.10;5.00;;;;;;;;;;5138632;27;20079;-72
2023/04/13 03:39:13;;;;;;;9.73;5.47;;;;;;;;;;5138611;27;20019;-71
2023/04/13 03:41:58;;;;;;;7.57;4.97;;;;;;;;;;5137264;27;20447;-72
2023/04/13 03:44:44;;;;;;;13.40;6.00;;;;;;;;;;5137780;27;20031;-72
2023/04/13 03:47:29;;;;;;;8.50;5.15;;;;;;;;;;5137555;27;20023;-71
2023/04/13 03:50:15;;;;;;;6.43;4.80;;;;;;;;;;5137475;27;20026;-71
2023/04/13 03:53:01;;;;;;;7.75;4.97;;;;;;;;;;5138348;27;20019;-72
2023/04/13 03:55:47;;;;;;;7.68;4.75;;;;;;;;;;5137308;27;20023;-72
2023/04/13 03:58:33;;;;;;;8.80;4.50;;;;;;;;;;5138344;27;20396;-72
2023/04/13 04:01:19;;;;;;;7.70;4.88;;;;;;;;;;5137483;27;20020;-71
2023/04/13 04:04:05;;;;;;;6.55;4.78;;;;;;;;;;5137217;27;20011;-71
2023/04/13 04:06:51;;;;;;;9.55;5.30;;;;;;;;;;5138821;27;20093;-71
2023/04/13 04:09:36;;;;;;;11.63;5.35;;;;;;;;;;5136796;27;20106;-72
2023/04/13 04:12:22;;;;;;;11.65;4.70;;;;;;;;;;5137777;27;20099;-72
2023/04/13 04:15:07;;;;;;;9.68;5.60;;;;;;;;;;5137160;27;20019;-72
2023/04/13 04:17:53;;;;;;;10.48;5.90;;;;;;;;;;5137261;27;20095;-72
2023/04/13 04:20:39;;;;;;;9.77;5.65;;;;;;;;;;5123719;27;20450;-71
2023/04/13 04:23:26;;;;;;;7.65;5.43;;;;;;;;;;5137721;27;20030;-71
2023/04/13 04:26:13;;;;;;;9.98;5.75;;;;;;;;;;5137298;27;20034;-72
2023/04/13 04:29:01;;;;;;;9.45;6.22;;;;;;;;;;5137400;27;20027;-71
2023/04/13 04:31:51;;;;;;;11.35;5.63;;;;;;;;;;5121613;27;20019;-72
2023/04/13 04:34:37;;;;;;;12.68;5.75;;;;;;;;;;5138469;27;20027;-72
2023/04/13 04:37:24;;;;;;;12.32;5.75;;;;;;;;;;5136827;27;20431;-72
2023/04/13 04:40:11;;;;;;;9.82;5.63;;;;;;;;;;5137356;27;20049;-71
2023/04/13 04:42:57;;;;;;;8.13;5.35;;;;;;;;;;5136675;27;20054;-72
2023/04/13 04:45:44;;;;;;;7.82;5.13;;;;;;;;;;5137205;27;20092;-71
2023/04/13 04:48:30;;;;;;;9.48;5.97;;;;;;;;;;5137713;27;20019;-72
2023/04/13 04:51:16;;;;;;;15.18;5.57;;;;;;;;;;5137837;27;20382;-72
2023/04/13 04:54:02;;;;;;;19.33;6.75;;;;;;;;;;5136178;27;20029;-72
2023/04/13 04:56:48;;;;;;;14.10;5.95;;;;;;;;;;5137019;27;20015;-72
2023/04/13 04:59:34;;;;;;;10.00;5.47;;;;;;;;;;5136444;27;20023;-72
2023/04/13 05:02:20;;;;;;;11.32;5.70;;;;;;;;;;5136529;27;20057;-72
2023/04/13 05:05:05;;;;;;;10.82;6.07;;;;;;;;;;5137389;27;20089;-71
2023/04/13 05:07:51;;;;;;;12.98;5.70;;;;;;;;;;5137066;27;20116;-72
2023/04/13 05:10:41;;;;;;;18.33;6.45;;;;;;;;;;5136764;27;20047;-72
2023/04/13 05:13:27;;;;;;;11.40;6.50;;;;;;;;;;5136764;27;20075;-71
2023/04/13 05:16:13;;;;;;;14.15;7.47;;;;;;;;;;5138210;27;20023;-71
2023/04/13 05:18:58;;;;;;;12.80;6.32;;;;;;;;;;5137004;27;20037;-70
2023/04/13 05:21:44;;;;;;;10.88;6.03;;;;;;;;;;5135720;27;20031;-70
2023/04/13 05:24:32;;;;;;;18.65;6.68;;;;;;;;;;5135326;27;20016;-72
2023/04/13 05:27:18;;;;;;;14.52;5.68;;;;;;;;;;5136619;27;20111;-72
2023/04/13 05:30:04;;;;;;;9.10;5.68;;;;;;;;;;5135965;27;20027;-72
2023/04/13 05:32:50;;;;;;;18.63;6.97;;;;;;;;;;5122997;27;20015;-72
2023/04/13 05:35:36;;;;;;;11.43;5.80;;;;;;;;;;5137112;27;20455;-71
2023/04/13 05:38:22;;;;;;;13.45;5.82;;;;;;;;;;5123138;27;20015;-72
2023/04/13 05:41:09;;;;;;;14.93;6.60;;;;;;;;;;5136610;27;20019;-72
2023/04/13 05:43:54;;;;;;;14.05;6.05;;;;;;;;;;5135402;27;20055;-72
2023/04/13 05:46:40;;;;;;;17.13;6.22;;;;;;;;;;5136302;27;20102;-72
2023/04/13 05:49:26;;;;;;;11.40;6.30;;;;;;;;;;5135472;27;20432;-72
2023/04/13 05:52:11;;;;;;;17.45;6.03;;;;;;;;;;5136810;27;20015;-72
2023/04/13 05:54:57;;;;;;;7.70;5.25;;;;;;;;;;5135884;27;20359;-71
2023/04/13 05:57:42;;;;;;;9.07;5.13;;;;;;;;;;5136340;27;20490;-72
2023/04/13 06:00:28;;;;;;;9.32;4.40;;;;;;;;;;5134936;27;20022;-72
2023/04/13 06:03:14;;;;;;;4.20;3.17;;;;;;;;;;5135768;27;20118;-71
2023/04/13 06:06:00;;;;;;;8.70;3.70;;;;;;;;;;5135480;27;20476;-72
2023/04/13 06:08:45;;;;;;;6.50;3.80;;;;;;;;;;5135517;27;20539;-72
2023/04/13 06:11:31;;;;;;;6.97;3.63;;;;;;;;;;5134684;27;20016;-72
2023/04/13 06:14:17;;;;;;;3.92;3.05;;;;;;;;;;5136705;27;20058;-72
2023/04/13 06:17:02;;;;;;;5.68;2.97;;;;;;;;;;5122254;27;20108;-72
2023/04/13 06:19:48;;;;;;;5.10;3.47;;;;;;;;;;5134813;27;20046;-73
2023/04/13 06:22:34;;;;;;;5.97;3.70;;;;;;;;;;5121595;27;20019;-72
2023/04/13 06:25:19;;;;;;;4.00;3.53;;;;;;;;;;5136154;27;20125;-72
2023/04/13 06:28:05;;;;;;;11.00;6.65;;;;;;;;;;5134514;27;20447;-73
2023/04/13 06:30:51;;;;;;;6.20;4.80;;;;;;;;;;5135346;27;20443;-72
2023/04/13 06:33:36;;;;;;;12.15;4.72;;;;;;;;;;5134663;27;20038;-72
2023/04/13 06:36:22;;;;;;;10.38;4.05;;;;;;;;;;5121634;27;20015;-73
2023/04/13 06:39:08;;;;;;;7.50;5.07;;;;;;;;;;5134892;27;20062;-73
2023/04/13 06:41:53;;;;;;;6.93;3.40;;;;;;;;;;5121381;27;20023;-72
2023/04/13 06:44:39;;;;;;;4.10;3.28;;;;;;;;;;5134571;27;20018;-71
2023/04/13 06:47:25;;;;;;;4.63;3.25;;;;;;;;;;5134337;27;20023;-71
2023/04/13 06:50:12;;;;;;;7.38;3.40;;;;;;;;;;5121850;27;20076;-72
2023/04/13 06:52:58;;;;;;;12.25;3.85;;;;;;;;;;5119361;28;20468;-71
2023/04/13 06:55:44;;;;;;;5.05;3.72;;;;;;;;;;5122730;28;20023;-71
2023/04/13 06:58:29;;;;;;;6.18;3.80;;;;;;;;;;5120353;28;20016;-72
2023/04/13 07:01:15;;;;;;;4.47;3.33;;;;;;;;;;5134852;28;20478;-72
2023/04/13 07:04:01;;;;;;;7.20;3.67;;;;;;;;;;5134472;28;20039;-72
2023/04/13 07:06:47;;;;;;;9.05;3.78;;;;;;;;;;5134096;28;20152;-72
2023/04/13 07:09:33;;;;;;;7.68;3.28;;;;;;;;;;5122025;28;20042;-72
2023/04/13 07:12:18;;;;;;;14.23;4.50;;;;;;;;;;5137274;28;20454;-72
2023/04/13 07:15:05;;;;;;;6.78;3.10;;;;;;;;;;5134866;28;20106;-70
2023/04/13 07:17:51;;;;;;;7.22;3.55;;;;;;;;;;5134370;28;20084;-73
2023/04/13 07:20:38;;;;;;;7.28;3.63;;;;;;;;;;5135190;28;20046;-72
2023/04/13 07:23:24;;;;;;;5.97;3.50;;;;;;;;;;5133767;28;20023;-72
2023/04/13 07:26:13;;;;;;;7.25;3.88;;;;;;;;;;5134443;28;20438;-72
2023/04/13 07:28:59;;;;;;;6.60;4.53;;;;;;;;;;5121019;28;20027;-72
2023/04/13 07:31:45;;;;;;;6.25;3.85;;;;;;;;;;5119717;28;20351;-74
2023/04/13 07:34:30;;;;;;;10.48;3.70;;;;;;;;;;5134259;28;20458;-72
2023/04/13 07:37:16;;;;;;;6.45;4.45;;;;;;;;;;5134320;28;20079;-72
2023/04/13 07:40:03;;;;;;;7.88;4.40;;;;;;;;;;5133677;28;20012;-73
2023/04/13 07:42:49;;;;;;;8.93;4.40;;;;;;;;;;5135101;27;20073;-72
2023/04/13 07:45:35;;;;;;;5.93;4.25;;;;;;;;;;5138216;27;20023;-71
2023/04/13 07:48:20;;;;;;;6.57;4.18;;;;;;;;;;5138268;27;20029;-72
2023/04/13 07:51:14;;;;;;;8.45;3.60;;;;;;;;;;5139032;27;20375;-72
2023/04/13 07:54:00;;;;;;;5.13;4.20;;;;;;;;;;5123002;27;20065;-71
2023/04/13 07:56:46;;;;;;;4.88;3.88;;;;;;;;;;5138234;27;20443;-72
2023/04/13 07:59:31;;;;;;;7.05;3.80;;;;;;;;;;5138748;27;20037;-71
2023/04/13 08:02:20;;;;;;;7.28;4.03;;;;;;;;;;5138681;27;20029;-72
2023/04/13 08:05:06;;;;;;;5.57;3.80;;;;;;;;;;5125609;27;20015;-71
2023/04/13 08:07:52;;;;;;;5.85;4.28;;;;;;;;;;5138680;27;20375;-72
2023/04/13 08:10:37;;;;;;;4.20;3.70;;;;;;;;;;5138627;27;20095;-72
2023/04/13 08:13:23;;;;;;;6.43;3.67;;;;;;;;;;5138345;27;20023;-71
2023/04/13 08:16:09;;;;;;;5.63;4.00;;;;;;;;;;5137855;27;20031;-72
2023/04/13 08:18:54;;;;;;;5.70;4.40;;;;;;;;;;5137637;27;20022;-72
2023/04/13 08:21:40;;;;;;;9.82;4.30;;;;;;;;;;5137491;27;20328;-72
2023/04/13 08:24:26;;;;;;;11.85;7.88;;;;;;;;;;5138168;27;20023;-71
2023/04/13 08:27:11;;;;;;;9.15;5.03;;;;;;;;;;5123593;27;20401;-72
2023/04/13 08:30:00;;;;;;;5.80;4.55;;;;;;;;;;5137317;27;20015;-72
2023/04/13 08:32:46;;;;;;;6.03;4.10;;;;;;;;;;5136988;27;20446;-71
2023/04/13 08:35:32;;;;;;;7.68;4.60;;;;;;;;;;5122232;27;20019;-73
2023/04/13 08:38:18;;;;;;;7.00;4.55;;;;;;;;;;5138905;27;20023;-72
2023/04/13 08:41:05;;;;;;;7.03;4.78;;;;;;;;;;5137557;27;20023;-73
2023/04/13 08:43:51;;;;;;;7.75;4.43;;;;;;;;;;5136879;27;20015;-72
2023/04/13 08:46:37;;;;;;;7.10;4.55;;;;;;;;;;5124439;27;20087;-72
2023/04/13 08:49:23;;;;;;;5.75;3.92;;;;;;;;;;5136433;27;20016;-72
2023/04/13 08:52:09;;;;;;;5.88;4.10;;;;;;;;;;5137233;27;20027;-73
2023/04/13 08:54:57;;;;;;;7.57;4.47;;;;;;;;;;5136785;27;20098;-72
2023/04/13 08:57:43;;;;;;;7.40;4.32;;;;;;;;;;5122967;27;20095;-72
2023/04/13 09:00:29;;;;;;;6.85;4.60;;;;;;;;;;5123073;27;20089;-73
2023/04/13 09:03:16;;;;;;;5.25;3.92;;;;;;;;;;5123323;27;20019;-71
2023/04/13 09:06:03;;;;;;;5.60;4.32;;;;;;;;;;5136594;27;20303;-72
2023/04/13 09:08:49;;;;;;;6.50;4.20;;;;;;;;;;5135568;27;20122;-73
2023/04/13 09:11:35;;;;;;;5.75;4.25;;;;;;;;;;5121194;27;20102;-73
2023/04/13 09:14:21;;;;;;;5.00;4.00;;;;;;;;;;5137432;27;20079;-72
2023/04/13 09:17:06;;;;;;;7.70;4.53;;;;;;;;;;5136726;27;20034;-72
2023/04/13 09:19:52;;;;;;;6.82;4.53;;;;;;;;;;5136297;27;20396;-73
2023/04/13 09:22:39;;;;;;;5.53;4.18;;;;;;;;;;5136721;27;20039;-72
2023/04/13 09:25:26;;;;;;;11.90;4.13;;;;;;;;;;5122414;27;20439;-72
2023/04/13 09:28:18;;;;;;;6.00;4.00;;;;;;;;;;5137108;27;20034;-72
2023/04/13 09:31:04;;;;;;;4.35;3.95;;;;;;;;;;5136667;27;20364;-72
2023/04/13 09:33:51;;;;;;;6.97;4.25;;;;;;;;;;5136204;27;20114;-73
2023/04/13 09:36:37;;;;;;;6.95;4.47;;;;;;;;;;5135871;27;20102;-72
2023/04/13 09:39:26;;;;;;;6.45;4.40;;;;;;;;;;5136831;27;20019;-73
2023/04/13 09:42:12;;;;;;;4.47;3.95;;;;;;;;;;5135777;27;20362;-73
2023/04/13 09:44:58;;;;;;;12.48;4.47;;;;;;;;;;5137776;27;20019;-71
2023/04/13 09:47:44;;;;;;;6.85;4.03;;;;;;;;;;5139932;27;20167;-72
2023/04/13 09:50:32;;;;;;;5.22;3.97;;;;;;;;;;5123689;27;20020;-73
2023/04/13 09:53:18;;;;;;;5.22;3.95;;;;;;;;;;5121741;27;20377;-72
2023/04/13 09:56:03;;;;;;;18.67;5.18;;;;;;;;;;5135086;27;20094;-72
2023/04/13 09:58:50;;;;;;;5.75;4.32;;;;;;;;;;5136614;27;20459;-72
2023/04/13 10:01:36;;;;;;;5.75;3.58;;;;;;;;;;5137025;27;20411;-73
2023/04/13 10:04:21;;;;;;;5.72;3.45;;;;;;;;;;5135546;27;20050;-72
2023/04/13 10:07:08;;;;;;;5.15;3.53;;;;;;;;;;5135053;27;20051;-73
2023/04/13 10:09:54;;;;;;;10.77;4.00;;;;;;;;;;5135898;27;20099;-73
2023/04/13 10:12:46;;;;;;;5.28;3.80;;;;;;;;;;5120435;27;20420;-72
2023/04/13 10:15:35;;;;;;;7.45;3.70;;;;;;;;;;5135159;27;20029;-72
2023/04/13 10:18:32;;;;;;;8.38;2.97;;;;;;;;;;5136220;27;20029;-73
2023/04/13 10:21:18;;;;;;;5.82;3.40;;;;;;;;;;5134589;27;20060;-73
2023/04/13 10:24:11;;;;;;;3.67;2.85;;;;;;;;;;5121522;27;20033;-72
2023/04/13 10:27:00;;;;;;;3.22;2.58;;;;;;;;;;5120831;27;20102;-72
2023/04/13 10:29:46;;;;;;;5.85;4.65;;;;;;;;;;5134822;27;20015;-72
2023/04/13 10:32:32;;;;;;;6.05;2.97;;;;;;;;;;5135181;27;20034;-72
2023/04/13 10:35:17;;;;;;;9.75;4.00;;;;;;;;;;5134707;27;20094;-72
2023/04/13 10:38:03;;;;;;;6.40;2.80;;;;;;;;;;5121373;27;20035;-72
2023/04/13 10:40:49;;;;;;;3.20;2.50;;;;;;;;;;5135949;27;20355;-73
2023/04/13 10:43:35;;;;;;;2.50;2.00;;;;;;;;;;5121685;27;20019;-73
2023/04/13 10:46:21;;;;;;;3.78;2.20;;;;;;;;;;5121132;27;20451;-72
2023/04/13 10:49:07;;;;;;;2.80;2.00;;;;;;;;;;5134667;27;20026;-72
2023/04/13 10:51:52;;;;;;;3.40;1.90;;;;;;;;;;5135689;27;20107;-73
2023/04/13 10:54:39;;;;;;;2.83;2.15;;;;;;;;;;5136508;28;20019;-72
2023/04/13 10:57:32;;;;;;;4.80;3.42;;;;;;;;;;5135155;28;20434;-72
2023/04/13 11:00:20;;;;;;;3.50;2.30;;;;;;;;;;5135010;28;20011;-72
2023/04/13 11:03:08;;;;;;;5.20;2.13;;;;;;;;;;5136918;28;20027;-72
2023/04/13 11:05:58;;;;;;;4.38;2.63;;;;;;;;;;5119798;28;20024;-71
2023/04/13 11:08:43;;;;;;;3.35;2.22;;;;;;;;;;5134877;28;20051;-72
2023/04/13 11:11:29;;;;;;;4.78;2.20;;;;;;;;;;5134219;28;20434;-72
2023/04/13 11:14:21;;;;;;;3.72;1.90;;;;;;;;;;5134916;28;20027;-73
2023/04/13 11:17:11;;;;;;;3.33;2.20;;;;;;;;;;5135405;28;20054;-73
2023/04/13 11:19:58;;;;;;;7.35;2.15;;;;;;;;;;5122864;27;20092;-72
2023/04/13 11:22:44;;;;;;;7.65;2.50;;;;;;;;;;5125069;27;20339;-72
2023/04/13 11:25:30;;;;;;;2.95;2.03;;;;;;;;;;5138858;27;20019;-72
2023/04/13 11:28:15;;;;;;;4.90;2.10;;;;;;;;;;5139785;27;20027;-72
2023/04/13 11:31:01;;;;;;;2.85;1.80;;;;;;;;;;5137975;27;20019;-72
2023/04/13 11:33:47;;;;;;;2.70;2.20;;;;;;;;;;5138020;27;20385;-72
2023/04/13 11:36:33;;;;;;;3.10;1.85;;;;;;;;;;5138626;27;20412;-72
2023/04/13 11:39:19;;;;;;;5.53;2.20;;;;;;;;;;5137900;27;20022;-71
2023/04/13 11:42:05;;;;;;;3.63;2.10;;;;;;;;;;5137719;27;20022;-72
2023/04/13 11:44:52;;;;;;;4.07;2.50;;;;;;;;;;5138544;27;20019;-72
2023/04/13 11:47:38;;;;;;;4.63;2.05;;;;;;;;;;5138341;27;20406;-72
2023/04/13 11:50:24;;;;;;;2.45;1.90;;;;;;;;;;5138862;27;20122;-73
2023/04/13 11:53:10;;;;;;;4.22;2.05;;;;;;;;;;5138575;27;20057;-73
2023/04/13 11:55:56;;;;;;;4.63;2.13;;;;;;;;;;5137848;27;20019;-72
2023/04/13 11:58:41;;;;;;;3.47;2.70;;;;;;;;;;5137907;27;20015;-71
2023/04/13 12:01:28;;;;;;;7.28;2.33;;;;;;;;;;5139099;27;20071;-72
2023/04/13 12:04:13;;;;;;;3.55;2.05;;;;;;;;;;5137592;27;20023;-72
2023/04/13 12:06:59;;;;;;;2.30;1.75;;;;;;;;;;5124429;27;20070;-73
2023/04/13 12:09:45;;;;;;;9.73;2.38;;;;;;;;;;5142076;27;20289;-72
2023/04/13 12:12:31;;;;;;;3.97;2.20;;;;;;;;;;5140478;27;20015;-74
2023/04/13 12:15:22;;;;;;;4.40;2.20;;;;;;;;;;5137383;27;20087;-71
2023/04/13 12:18:11;;;;;;;6.53;2.40;;;;;;;;;;5137920;27;20034;-71
2023/04/13 12:20:59;;;;;;;4.22;1.98;;;;;;;;;;5145217;27;20495;-72
2023/04/13 12:23:56;;;;;;;3.97;2.20;;;;;;;;;;5137886;27;20023;-71
2023/04/13 12:26:42;;;;;;;4.65;2.20;;;;;;;;;;5138269;27;20443;-71
2023/04/13 12:29:27;;;;;;;3.63;2.40;;;;;;;;;;5137477;27;20118;-72
2023/04/13 12:32:13;;;;;;;5.88;2.40;;;;;;;;;;5137275;27;20092;-72
2023/04/13 12:34:59;;;;;;;4.28;2.28;;;;;;;;;;5137423;27;20406;-71
2023/04/13 12:37:45;;;;;;;6.68;2.38;;;;;;;;;;5137308;27;20091;-72
2023/04/13 12:40:31;;;;;;;5.15;2.15;;;;;;;;;;5123014;27;20044;-71
2023/04/13 12:43:16;;;;;;;4.63;2.60;;;;;;;;;;5136791;27;20016;-72
2023/04/13 12:46:02;;;;;;;7.75;2.22;;;;;;;;;;5137896;27;20019;-71
2023/04/13 12:48:47;;;;;;;4.70;2.42;;;;;;;;;;5123555;27;20026;-72
2023/04/13 12:51:33;;;;;;;2.92;2.10;;;;;;;;;;5136896;27;20023;-72
2023/04/13 12:54:19;;;;;;;4.43;2.10;;;;;;;;;;5136475;27;20015;-72
2023/04/13 12:57:05;;;;;;;5.78;2.67;;;;;;;;;;5136763;27;20022;-71
2023/04/13 12:59:51;;;;;;;13.60;3.03;;;;;;;;;;5123511;27;20019;-72
2023/04/13 13:02:37;;;;;;;5.07;2.20;;;;;;;;;;5136312;27;20108;-73
2023/04/13 13:05:22;;;;;;;3.20;2.15;;;;;;;;;;5136894;27;20102;-72
2023/04/13 13:08:08;;;;;;;3.65;2.47;;;;;;;;;;5135926;27;20110;-71
2023/04/13 13:10:54;;;;;;;8.48;2.45;;;;;;;;;;5136709;27;20055;-71
2023/04/13 13:13:40;;;;;;;6.45;2.33;;;;;;;;;;5135932;27;20371;-72
2023/04/13 13:16:25;;;;;;;3.25;2.53;;;;;;;;;;5136743;27;20023;-71
2023/04/13 13:19:11;;;;;;;10.75;2.28;;;;;;;;;;5136033;27;20030;-73
2023/04/13 13:21:57;;;;;;;15.15;2.97;;;;;;;;;;5137431;27;20026;-71
2023/04/13 13:24:43;;;;;;;9.85;2.17;;;;;;;;;;5136343;27;20450;-70
2023/04/13 13:27:28;;;;;;;3.08;2.10;;;;;;;;;;5136989;27;20027;-71
2023/04/13 13:30:14;;;;;;;5.93;2.10;;;;;;;;;;5135418;27;20015;-72
2023/04/13 13:33:00;;;;;;;5.75;2.05;;;;;;;;;;5135319;27;20065;-72
2023/04/13 13:35:45;;;;;;;3.95;2.10;;;;;;;;;;5136879;27;20031;-71
2023/04/13 13:38:31;;;;;;;3.00;2.00;;;;;;;;;;5135236;27;20385;-71
2023/04/13 13:41:17;;;;;;;2.92;1.73;;;;;;;;;;5136567;27;20458;-71
2023/04/13 13:44:02;;;;;;;4.70;2.00;;;;;;;;;;5135484;27;20501;-72
2023/04/13 13:46:48;;;;;;;7.25;2.33;;;;;;;;;;5135527;27;20075;-72
2023/04/13 13:49:34;;;;;;;3.20;2.10;;;;;;;;;;5136813;27;20034;-71
2023/04/13 13:52:19;;;;;;;4.07;2.03;;;;;;;;;;5136384;27;20033;-72
2023/04/13 13:55:06;;;;;;;3.60;1.70;;;;;;;;;;5135035;27;20384;-71
2023/04/13 13:57:51;;;;;;;3.10;1.70;;;;;;;;;;5135240;27;20038;-71
2023/04/13 14:00:37;;;;;;;4.18;2.00;;;;;;;;;;5135184;27;20046;-72
2023/04/13 14:03:22;;;;;;;3.20;1.70;;;;;;;;;;5121756;27;20019;-71
2023/04/13 14:06:08;;;;;;;9.48;2.40;;;;;;;;;;5135241;27;20026;-72
2023/04/13 14:08:54;;;;;;;5.60;2.25;;;;;;;;;;5134460;27;20363;-71
2023/04/13 14:11:40;;;;;;;4.88;1.98;;;;;;;;;;5122460;27;20015;-72
2023/04/13 14:14:26;;;;;;;7.38;2.28;;;;;;;;;;5135097;27;20034;-71
2023/04/13 14:17:11;;;;;;;4.43;2.00;;;;;;;;;;5134881;27;20023;-72
2023/04/13 14:19:57;;;;;;;2.58;1.80;;;;;;;;;;5134869;27;20026;-71
2023/04/13 14:22:42;;;;;;;2.40;1.70;;;;;;;;;;5134758;27;20026;-71
2023/04/13 14:25:28;;;;;;;2.60;1.70;;;;;;;;;;5122033;27;20015;-71
2023/04/13 14:28:14;;;;;;;4.00;2.10;;;;;;;;;;5134612;27;20447;-71
2023/04/13 14:30:59;;;;;;;9.75;2.05;;;;;;;;;;5134693;27;20422;-71
2023/04/13 14:33:45;;;;;;;5.65;2.10;;;;;;;;;;5122091;27;20023;-71
2023/04/13 14:36:31;;;;;;;2.28;1.90;;;;;;;;;;5134852;27;20020;-72
2023/04/13 14:39:16;;;;;;;3.65;2.00;;;;;;;;;;5136334;27;20023;-70
2023/04/13 14:42:02;;;;;;;6.22;2.13;;;;;;;;;;5119520;27;20422;-72
2023/04/13 14:44:48;;;;;;;6.35;2.08;;;;;;;;;;5106925;27;20462;-71
2023/04/13 14:47:33;;;;;;;3.67;1.80;;;;;;;;;;5135199;27;20027;-72
2023/04/13 14:50:20;;;;;;;6.38;2.08;;;;;;;;;;5120631;27;20029;-70
2023/04/13 14:53:06;;;;;;;2.85;1.70;;;;;;;;;;5134655;27;20027;-72
2023/04/13 14:55:52;;;;;;;5.03;2.22;;;;;;;;;;5134452;28;20025;-71
2023/04/13 14:58:37;;;;;;;5.00;1.95;;;;;;;;;;5134585;28;20023;-72
2023/04/13 15:01:23;;;;;;;2.38;1.88;;;;;;;;;;5135239;28;20023;-72
2023/04/13 15:04:09;;;;;;;4.38;1.90;;;;;;;;;;5135096;28;20125;-71
2023/04/13 15:06:55;;;;;;;5.07;1.67;;;;;;;;;;5135430;28;20054;-72
2023/04/13 15:09:41;;;;;;;11.18;2.33;;;;;;;;;;5134558;28;20075;-72
2023/04/13 15:12:26;;;;;;;3.92;1.90;;;;;;;;;;5135336;28;20499;-72
2023/04/13 15:15:12;;;;;;;4.10;1.95;;;;;;;;;;5134449;28;20460;-72
2023/04/13 15:17:58;;;;;;;4.93;2.10;;;;;;;;;;5134528;28;20027;-72
2023/04/13 15:20:43;;;;;;;3.15;1.70;;;;;;;;;;5134313;28;20054;-72
2023/04/13 15:23:29;;;;;;;3.80;1.80;;;;;;;;;;5120483;28;20015;-72
2023/04/13 15:26:18;;;;;;;12.00;2.38;;;;;;;;;;5134858;28;20011;-73
2023/04/13 15:29:04;;;;;;;5.32;2.08;;;;;;;;;;5134926;28;20047;-72
2023/04/13 15:31:50;;;;;;;3.75;1.63;;;;;;;;;;5133930;28;20027;-72
2023/04/13 15:34:36;;;;;;;3.80;1.98;;;;;;;;;;5121790;28;20048;-71
2023/04/13 15:37:22;;;;;;;4.13;2.03;;;;;;;;;;5133743;28;20088;-72
2023/04/13 15:40:09;;;;;;;4.38;2.00;;;;;;;;;;5134691;28;20019;-72
2023/04/13 15:42:54;;;;;;;3.80;2.15;;;;;;;;;;5134714;28;20344;-73
2023/04/13 15:45:40;;;;;;;6.03;2.00;;;;;;;;;;5135148;28;20054;-71
2023/04/13 15:48:26;;;;;;;5.25;2.22;;;;;;;;;;5135060;28;20019;-71
2023/04/13 15:51:11;;;;;;;10.30;2.72;;;;;;;;;;5120476;28;20027;-72
2023/04/13 15:53:57;;;;;;;6.03;2.17;;;;;;;;;;5133848;28;20092;-72
2023/04/13 15:56:42;;;;;;;2.70;1.75;;;;;;;;;;5133648;28;20055;-72
2023/04/13 15:59:29;;;;;;;4.88;2.00;;;;;;;;;;5133835;28;20024;-73
2023/04/13 16:02:15;;;;;;;28.00;2.83;;;;;;;;;;5119427;28;20015;-72
2023/04/13 16:05:01;;;;;;;6.03;1.85;;;;;;;;;;5136792;27;20102;-72
2023/04/13 16:07:47;;;;;;;6.55;1.92;;;;;;;;;;5137616;27;20069;-72
2023/04/13 16:10:32;;;;;;;3.13;1.80;;;;;;;;;;5138438;27;20034;-71
2023/04/13 16:13:18;;;;;;;6.07;2.15;;;;;;;;;;5138108;27;20026;-72
2023/04/13 16:16:04;;;;;;;8.45;2.15;;;;;;;;;;5124654;27;20019;-72
2023/04/13 16:18:49;;;;;;;8.18;2.00;;;;;;;;;;5137300;27;20019;-71
2023/04/13 16:21:35;;;;;;;16.88;2.75;;;;;;;;;;5138072;27;20102;-71
2023/04/13 16:24:20;;;;;;;8.18;2.00;;;;;;;;;;5137118;27;20067;-70
2023/04/13 16:27:07;;;;;;;8.90;2.38;;;;;;;;;;5124704;27;20019;-70
2023/04/13 16:29:53;;;;;;;11.40;2.50;;;;;;;;;;5122523;27;20064;-72
2023/04/13 16:32:42;;;;;;;13.90;2.63;;;;;;;;;;5124070;27;20051;-71
2023/04/13 16:35:27;;;;;;;9.90;2.50;;;;;;;;;;5137503;27;20080;-71